Time;durP1;ratioP1;P1;durP2;ratioP2;P2;SDS_P1;SDS_P2;PMS_P1;PMS_P2;Temp;Humidity;BMP_temperature;BMP_pressure;BME280_temperature;BME280_humidity;BME280_pressure;Samples;Min_cycle;Max_cycle;Signal;HPM_P1;HPM_P2
2021/04/27 00:01:48;;;;;;;6.70;3.22;;;;;;;6.30;57.70;101315.97;5266992;28;20037;-68
2021/04/27 00:04:19;;;;;;;5.88;3.47;;;;;;;6.34;58.64;101310.47;5269970;28;20067;-67
2021/04/27 00:06:50;;;;;;;4.43;2.70;;;;;;;6.31;58.24;101305.44;5268565;28;20409;-68
2021/04/27 00:09:22;;;;;;;8.10;3.20;;;;;;;6.27;58.43;101297.94;5263138;28;20385;-68
2021/04/27 00:11:53;;;;;;;10.65;3.75;;;;;;;6.20;58.26;101294.00;5266508;28;20538;-67
2021/04/27 00:14:24;;;;;;;4.85;2.80;;;;;;;6.19;58.82;101300.16;5267262;28;20777;-68
2021/04/27 00:16:56;;;;;;;5.55;3.10;;;;;;;6.17;58.14;101300.22;5264105;28;20452;-67
2021/04/27 00:19:27;;;;;;;7.00;3.00;;;;;;;6.19;58.85;101298.38;5268776;28;20026;-69
2021/04/27 00:21:59;;;;;;;5.72;3.15;;;;;;;6.18;58.70;101288.91;5268339;28;20024;-68
2021/04/27 00:24:31;;;;;;;5.35;3.13;;;;;;;6.01;59.01;101287.28;5265158;28;20104;-67
2021/04/27 00:27:02;;;;;;;6.70;3.40;;;;;;;5.99;59.27;101283.13;5266976;28;20111;-69
2021/04/27 00:29:34;;;;;;;6.13;3.28;;;;;;;5.98;59.52;101284.03;5266750;28;20362;-68
2021/04/27 00:32:05;;;;;;;7.68;3.50;;;;;;;5.94;59.46;101280.78;5266463;28;20089;-67
2021/04/27 00:34:37;;;;;;;6.93;3.40;;;;;;;5.91;59.87;101273.13;5265955;28;20048;-69
2021/04/27 00:37:08;;;;;;;4.47;3.33;;;;;;;5.89;59.74;101276.75;5268025;28;20031;-67
2021/04/27 00:39:39;;;;;;;7.30;3.60;;;;;;;5.85;59.82;101266.50;5266035;28;20119;-68
2021/04/27 00:42:11;;;;;;;7.90;4.00;;;;;;;5.81;60.30;101262.41;5265376;28;20547;-68
2021/04/27 00:44:42;;;;;;;6.03;3.28;;;;;;;5.78;60.39;101260.00;5265691;28;20383;-69
2021/04/27 00:47:13;;;;;;;9.43;3.60;;;;;;;5.74;60.41;101258.50;5265043;28;20024;-69
2021/04/27 00:49:45;;;;;;;7.97;3.85;;;;;;;5.68;60.42;101253.66;5265778;28;20444;-69
2021/04/27 00:52:16;;;;;;;5.63;3.38;;;;;;;5.73;60.42;101261.19;5264543;28;20065;-68
2021/04/27 00:54:48;;;;;;;8.32;4.32;;;;;;;5.63;61.09;101249.66;5266939;28;20481;-68
2021/04/27 00:57:21;;;;;;;5.90;3.42;;;;;;;5.71;61.13;101247.44;5263986;28;20036;-68
2021/04/27 00:59:52;;;;;;;7.97;3.80;;;;;;;5.65;60.95;101253.84;5264242;28;20036;-68
2021/04/27 01:02:27;;;;;;;5.93;3.78;;;;;;;5.55;61.06;101244.91;5266250;28;20275;-69
2021/04/27 01:04:58;;;;;;;6.25;3.40;;;;;;;5.51;60.76;101240.81;5264830;28;20028;-67
2021/04/27 01:07:34;;;;;;;9.20;4.18;;;;;;;5.49;61.02;101238.31;5265590;28;20102;-67
2021/04/27 01:10:10;;;;;;;8.25;3.97;;;;;;;5.50;60.93;101233.94;5264993;28;20089;-69
2021/04/27 01:12:54;;;;;;;6.18;3.38;;;;;;;5.55;60.77;101227.53;5266039;28;20059;-69
2021/04/27 01:15:28;;;;;;;9.02;3.97;;;;;;;5.54;61.17;101225.88;5266153;28;20025;-68
2021/04/27 01:18:01;;;;;;;6.65;3.42;;;;;;;5.52;61.74;101232.06;5265606;28;20056;-69
2021/04/27 01:20:46;;;;;;;7.97;3.97;;;;;;;5.51;60.76;101226.03;5263250;28;20040;-68
2021/04/27 01:23:23;;;;;;;8.63;4.20;;;;;;;5.37;61.29;101223.38;5264946;28;20132;-69
2021/04/27 01:25:54;;;;;;;6.20;4.30;;;;;;;5.48;61.46;101221.00;5264458;28;20047;-68
2021/04/27 01:28:27;;;;;;;8.80;4.37;;;;;;;5.33;61.70;101206.31;5266903;28;20028;-68
2021/04/27 01:31:01;;;;;;;8.07;3.30;;;;;;;5.36;61.81;101224.31;5263021;28;20028;-69
2021/04/27 01:33:33;;;;;;;8.75;4.20;;;;;;;5.37;62.16;101213.00;5264822;28;20031;-68
2021/04/27 01:36:05;;;;;;;9.38;4.47;;;;;;;5.22;61.59;101211.25;5266530;28;20474;-68
2021/04/27 01:38:37;;;;;;;7.90;3.75;;;;;;;5.29;61.58;101215.19;5263702;28;20024;-68
2021/04/27 01:41:08;;;;;;;5.95;3.75;;;;;;;5.16;62.58;101216.81;5262707;28;20063;-69
2021/04/27 01:43:40;;;;;;;7.70;3.67;;;;;;;5.11;62.37;101207.53;5267032;28;20036;-70
2021/04/27 01:46:12;;;;;;;10.13;4.40;;;;;;;5.12;62.04;101209.19;5265980;28;20039;-69
2021/04/27 01:48:44;;;;;;;6.72;3.83;;;;;;;5.07;62.11;101199.97;5263691;28;20035;-68
2021/04/27 01:51:16;;;;;;;6.65;4.18;;;;;;;5.07;62.84;101203.41;5265966;28;20037;-70
2021/04/27 01:53:49;;;;;;;9.93;4.40;;;;;;;5.03;63.17;101196.72;5262386;28;20548;-68
2021/04/27 01:56:21;;;;;;;7.95;4.35;;;;;;;4.96;62.71;101186.75;5266283;28;20029;-69
2021/04/27 01:58:53;;;;;;;7.73;4.10;;;;;;;4.91;62.96;101200.00;5264233;28;20461;-69
2021/04/27 02:01:25;;;;;;;6.20;4.15;;;;;;;4.92;63.11;101191.28;5260056;28;20038;-69
2021/04/27 02:03:56;;;;;;;7.57;3.92;;;;;;;4.85;63.29;101201.19;5262103;28;20396;-69
2021/04/27 02:06:28;;;;;;;5.95;3.90;;;;;;;4.82;63.54;101193.56;5262231;28;20036;-69
2021/04/27 02:09:07;;;;;;;6.38;3.67;;;;;;;4.80;63.06;101197.16;5251161;28;20182;-68
2021/04/27 02:11:42;;;;;;;6.05;3.55;;;;;;;4.69;64.06;101183.94;5264307;28;20456;-69
2021/04/27 02:14:14;;;;;;;7.78;4.32;;;;;;;4.58;63.56;101193.16;5262659;28;20127;-68
2021/04/27 02:17:06;;;;;;;9.15;4.00;;;;;;;4.73;63.63;101195.81;5259764;28;20054;-69
2021/04/27 02:19:40;;;;;;;10.63;4.25;;;;;;;4.64;64.44;101190.22;5265440;28;20036;-70
2021/04/27 02:22:12;;;;;;;7.57;4.20;;;;;;;4.66;63.71;101189.28;5265053;28;20040;-69
2021/04/27 02:24:43;;;;;;;10.82;4.15;;;;;;;4.57;64.02;101183.69;5263059;28;20025;-68
2021/04/27 02:27:15;;;;;;;9.05;4.35;;;;;;;4.58;64.59;101184.50;5260465;28;20033;-69
2021/04/27 02:29:47;;;;;;;7.72;4.30;;;;;;;4.61;64.48;101180.00;5264985;28;20040;-68
2021/04/27 02:32:19;;;;;;;6.45;4.10;;;;;;;4.46;63.81;101175.63;5264551;28;20036;-68
2021/04/27 02:34:50;;;;;;;6.32;4.13;;;;;;;4.64;63.85;101173.81;5265315;28;20402;-69
2021/04/27 02:37:22;;;;;;;8.68;4.38;;;;;;;4.59;64.56;101178.44;5260397;28;20112;-67
2021/04/27 02:39:53;;;;;;;7.93;4.45;;;;;;;4.44;64.48;101174.06;5266446;28;20370;-69
2021/04/27 02:42:26;;;;;;;8.57;4.22;;;;;;;4.43;64.60;101170.59;5268402;28;20025;-68
2021/04/27 02:44:57;;;;;;;8.52;4.50;;;;;;;4.33;64.87;101172.88;5266684;28;20078;-69
2021/04/27 02:47:28;;;;;;;7.57;4.20;;;;;;;4.46;64.66;101164.44;5268646;28;20032;-68
2021/04/27 02:49:59;;;;;;;6.72;4.32;;;;;;;4.30;65.05;101164.41;5267521;28;20028;-68
2021/04/27 02:52:31;;;;;;;7.50;4.40;;;;;;;4.38;64.69;101175.22;5267974;28;20203;-68
2021/04/27 02:55:03;;;;;;;9.40;5.00;;;;;;;4.29;64.70;101188.69;5268241;28;20057;-67
2021/04/27 02:57:35;;;;;;;7.97;4.05;;;;;;;4.29;64.65;101171.38;5271133;28;20070;-69
2021/04/27 03:00:07;;;;;;;7.38;4.20;;;;;;;4.23;64.81;101179.47;5268948;28;20494;-68
2021/04/27 03:02:38;;;;;;;7.07;4.17;;;;;;;4.21;65.27;101183.91;5266096;28;20124;-68
2021/04/27 03:05:11;;;;;;;6.82;4.70;;;;;;;4.31;65.04;101172.09;5268561;28;20115;-67
2021/04/27 03:07:42;;;;;;;9.05;4.55;;;;;;;4.19;64.95;101161.56;5270971;28;20025;-69
2021/04/27 03:10:14;;;;;;;12.35;4.90;;;;;;;4.29;64.89;101160.16;5269831;28;20093;-67
2021/04/27 03:12:45;;;;;;;7.53;4.40;;;;;;;4.12;65.62;101161.88;5269293;28;20124;-68
2021/04/27 03:15:18;;;;;;;6.63;4.50;;;;;;;4.09;65.04;101162.06;5265868;28;20040;-67
2021/04/27 03:17:49;;;;;;;8.05;5.32;;;;;;;4.04;65.76;101147.66;5266888;28;20166;-68
2021/04/27 03:20:20;;;;;;;10.60;4.75;;;;;;;4.15;65.54;101153.94;5267352;28;20124;-69
2021/04/27 03:22:52;;;;;;;7.72;4.05;;;;;;;4.01;65.62;101150.38;5266691;28;20025;-67
2021/04/27 03:25:23;;;;;;;7.82;4.63;;;;;;;3.93;65.69;101147.38;5265182;28;20029;-68
2021/04/27 03:27:55;;;;;;;9.27;4.43;;;;;;;4.00;65.63;101146.97;5269898;28;20119;-68
2021/04/27 03:30:26;;;;;;;10.68;4.82;;;;;;;4.09;66.15;101143.03;5268241;28;20093;-66
2021/04/27 03:32:58;;;;;;;9.57;4.78;;;;;;;3.92;65.87;101140.50;5265614;28;20024;-67
2021/04/27 03:35:30;;;;;;;7.53;4.45;;;;;;;3.84;66.28;101143.50;5265521;28;20374;-66
2021/04/27 03:38:01;;;;;;;8.20;4.60;;;;;;;3.88;65.86;101139.84;5265325;28;20035;-67
2021/04/27 03:40:33;;;;;;;10.05;4.25;;;;;;;3.77;65.89;101142.97;5266761;28;20047;-66
2021/04/27 03:43:05;;;;;;;6.05;4.13;;;;;;;3.76;66.08;101138.72;5265900;28;20024;-67
2021/04/27 03:45:36;;;;;;;8.48;4.95;;;;;;;3.73;66.55;101140.63;5266984;28;20037;-66
2021/04/27 03:48:10;;;;;;;8.18;4.78;;;;;;;3.73;66.45;101144.06;5267551;28;20016;-68
2021/04/27 03:50:43;;;;;;;8.05;4.80;;;;;;;3.68;66.81;101138.28;5263120;28;20042;-67
2021/04/27 03:53:14;;;;;;;9.15;4.50;;;;;;;3.72;66.39;101144.16;5268573;28;20027;-66
2021/04/27 03:55:46;;;;;;;8.73;4.88;;;;;;;3.79;66.83;101138.56;5267261;28;20072;-67
2021/04/27 03:58:17;;;;;;;10.75;5.18;;;;;;;3.57;66.99;101138.00;5265855;28;20554;-66
2021/04/27 04:00:48;;;;;;;5.57;4.50;;;;;;;3.61;66.54;101134.31;5261820;28;20040;-67
2021/04/27 04:03:20;;;;;;;6.70;4.68;;;;;;;3.57;66.99;101133.66;5264127;28;20104;-66
2021/04/27 04:05:52;;;;;;;8.27;5.20;;;;;;;3.55;66.80;101132.03;5261875;28;20120;-68
2021/04/27 04:08:23;;;;;;;6.35;4.53;;;;;;;3.58;66.63;101131.88;5266198;28;20024;-69
2021/04/27 04:10:54;;;;;;;7.88;5.15;;;;;;;3.63;66.89;101128.13;5267155;28;20040;-66
2021/04/27 04:13:26;;;;;;;7.63;4.85;;;;;;;3.60;67.17;101140.44;5486733;22;20051;-69
2021/04/27 04:15:57;;;;;;;8.27;4.95;;;;;;;3.51;66.70;101130.53;5281198;28;20103;-69
2021/04/27 04:18:28;;;;;;;7.47;4.63;;;;;;;3.48;67.01;101133.25;5287928;28;20031;-69
2021/04/27 04:21:00;;;;;;;7.88;5.20;;;;;;;3.40;67.52;101131.06;5287237;28;20037;-69
2021/04/27 04:23:31;;;;;;;10.05;4.88;;;;;;;3.44;67.25;101127.41;5284066;28;20400;-69
2021/04/27 04:26:02;;;;;;;7.32;4.45;;;;;;;3.35;67.50;101120.94;5287862;28;20467;-69
2021/04/27 04:28:34;;;;;;;6.97;5.10;;;;;;;3.48;67.47;101122.91;5288019;28;20020;-69
2021/04/27 04:31:06;;;;;;;6.50;4.90;;;;;;;3.45;67.01;101123.03;5284937;28;20546;-69
2021/04/27 04:33:37;;;;;;;7.65;5.22;;;;;;;3.33;67.69;101121.91;5282256;28;20396;-69
2021/04/27 04:36:08;;;;;;;9.98;4.93;;;;;;;3.52;67.71;101127.00;5286960;28;20448;-69
2021/04/27 04:38:40;;;;;;;7.65;5.28;;;;;;;3.36;67.58;101127.78;5285905;28;20393;-69
2021/04/27 04:41:11;;;;;;;7.75;5.88;;;;;;;3.37;68.04;101138.97;5289267;28;20438;-68
2021/04/27 04:43:42;;;;;;;10.30;5.35;;;;;;;3.35;68.12;101138.22;5284765;28;20044;-67
2021/04/27 04:46:13;;;;;;;9.60;5.10;;;;;;;3.54;67.91;101133.78;5286546;28;20028;-67
2021/04/27 04:48:47;;;;;;;7.57;5.68;;;;;;;3.44;68.19;101124.81;5282377;28;20051;-67
2021/04/27 04:51:18;;;;;;;8.75;5.85;;;;;;;3.52;67.68;101138.19;5286791;28;20056;-67
2021/04/27 04:53:51;;;;;;;6.90;5.40;;;;;;;3.52;67.62;101137.38;5288159;28;20051;-67
2021/04/27 04:56:22;;;;;;;10.17;5.50;;;;;;;3.61;67.65;101134.31;5290551;28;20055;-67
2021/04/27 04:58:53;;;;;;;9.73;5.65;;;;;;;3.64;67.37;101132.41;5275796;28;20213;-67
2021/04/27 05:01:25;;;;;;;9.52;5.00;;;;;;;3.63;67.08;101135.91;5284968;28;20613;-67
2021/04/27 05:03:56;;;;;;;11.52;5.35;;;;;;;3.59;67.33;101125.78;5285460;28;20034;-68
2021/04/27 05:06:33;;;;;;;6.88;5.35;;;;;;;3.60;67.63;101130.06;5284643;28;20032;-68
2021/04/27 05:09:09;;;;;;;10.65;6.00;;;;;;;3.71;67.40;101124.31;5284465;28;20107;-68
2021/04/27 05:11:41;;;;;;;11.70;5.88;;;;;;;3.76;67.18;101128.34;5283188;28;20433;-68
2021/04/27 05:14:12;;;;;;;10.32;5.50;;;;;;;3.75;66.94;101125.81;5285439;28;20413;-68
2021/04/27 05:16:44;;;;;;;12.98;5.90;;;;;;;3.87;66.73;101120.88;5285866;28;20037;-68
2021/04/27 05:19:15;;;;;;;12.43;5.65;;;;;;;3.96;66.38;101121.28;5285106;28;20020;-68
2021/04/27 05:21:46;;;;;;;7.20;5.63;;;;;;;4.04;66.70;101126.91;5288453;28;20501;-68
2021/04/27 05:24:19;;;;;;;8.55;5.63;;;;;;;4.14;66.26;101121.16;5283660;28;20270;-68
2021/04/27 05:26:50;;;;;;;10.77;5.97;;;;;;;4.22;65.72;101125.09;5286465;28;20040;-68
2021/04/27 05:29:22;;;;;;;13.30;6.63;;;;;;;4.29;65.91;101124.69;5281521;28;20019;-68
2021/04/27 05:31:54;;;;;;;9.20;6.22;;;;;;;4.30;65.29;101122.91;5285171;28;20477;-68
2021/04/27 05:34:25;;;;;;;11.18;6.28;;;;;;;4.39;65.14;101122.41;5286727;28;20020;-68
2021/04/27 05:36:56;;;;;;;8.32;6.28;;;;;;;4.46;65.21;101107.34;5284002;28;20032;-69
2021/04/27 05:39:28;;;;;;;9.43;5.90;;;;;;;4.47;65.02;101112.47;5283512;28;20123;-68
2021/04/27 05:42:00;;;;;;;8.00;6.55;;;;;;;4.49;64.86;101108.03;5285243;28;20171;-68
2021/04/27 05:44:31;;;;;;;9.18;5.72;;;;;;;4.60;65.28;101110.84;5284484;28;20028;-69
2021/04/27 05:47:02;;;;;;;8.02;6.25;;;;;;;4.71;64.91;101109.44;5283868;28;20024;-68
2021/04/27 05:49:34;;;;;;;10.85;6.47;;;;;;;4.69;63.29;101114.69;5285275;28;20385;-68
2021/04/27 05:52:06;;;;;;;8.50;5.72;;;;;;;4.73;63.84;101112.75;5287176;28;20052;-69
2021/04/27 05:54:37;;;;;;;9.10;6.35;;;;;;;4.80;63.74;101112.34;5286300;28;20028;-68
2021/04/27 05:57:08;;;;;;;9.85;6.32;;;;;;;4.86;63.39;101111.16;5285613;28;20016;-68
2021/04/27 05:59:40;;;;;;;10.63;6.32;;;;;;;4.91;62.64;101111.72;5284732;28;20067;-68
2021/04/27 06:02:11;;;;;;;7.40;5.70;;;;;;;5.01;62.95;101114.66;5280211;28;20409;-69
2021/04/27 06:04:42;;;;;;;7.97;6.30;;;;;;;5.04;62.32;101110.13;5275465;28;20040;-68
2021/04/27 06:07:14;;;;;;;8.38;5.80;;;;;;;5.07;61.39;101106.50;5282453;28;20085;-68
2021/04/27 06:09:45;;;;;;;9.13;5.70;;;;;;;5.23;62.16;101111.66;5280655;28;20037;-68
2021/04/27 06:12:16;;;;;;;10.63;5.88;;;;;;;5.33;60.12;101120.56;5285293;28;20025;-69
2021/04/27 06:14:48;;;;;;;9.90;6.20;;;;;;;5.42;60.81;101117.44;5286327;28;20064;-68
2021/04/27 06:17:19;;;;;;;9.32;5.53;;;;;;;5.51;59.31;101116.88;5283360;28;20024;-68
2021/04/27 06:19:50;;;;;;;9.20;5.30;;;;;;;5.55;59.03;101120.16;5284640;28;20025;-68
2021/04/27 06:22:22;;;;;;;8.35;5.65;;;;;;;5.59;59.00;101119.03;5287010;28;20026;-69
2021/04/27 06:24:53;;;;;;;8.70;5.53;;;;;;;5.61;59.13;101118.03;5287705;28;20023;-68
2021/04/27 06:27:27;;;;;;;9.35;5.18;;;;;;;5.65;58.46;101110.88;5288705;28;20100;-68
2021/04/27 06:30:00;;;;;;;14.02;5.47;;;;;;;5.85;58.50;101114.88;5287931;28;20055;-68
2021/04/27 06:32:32;;;;;;;9.60;5.00;;;;;;;5.99;58.07;101106.28;5282334;28;20393;-68
2021/04/27 06:35:04;;;;;;;7.85;5.20;;;;;;;6.15;57.59;101098.34;5286624;28;20043;-67
2021/04/27 06:37:35;;;;;;;9.02;5.40;;;;;;;6.29;56.81;101099.16;5282367;28;20067;-67
2021/04/27 06:40:08;;;;;;;9.10;5.38;;;;;;;6.39;56.40;101098.56;5286385;28;20060;-68
2021/04/27 06:42:39;;;;;;;10.98;5.22;;;;;;;6.55;55.19;101094.91;5286766;28;20029;-67
2021/04/27 06:45:11;;;;;;;8.75;5.00;;;;;;;6.77;54.37;101098.72;5284246;28;20115;-67
2021/04/27 06:47:43;;;;;;;8.50;5.30;;;;;;;7.10;55.16;101105.28;5287905;28;20056;-67
2021/04/27 06:50:17;;;;;;;8.27;5.93;;;;;;;7.24;54.03;101086.97;5288116;28;20056;-67
2021/04/27 06:52:48;;;;;;;8.00;5.50;;;;;;;7.43;53.35;101100.44;5288361;28;20451;-67
2021/04/27 06:55:19;;;;;;;8.15;4.57;;;;;;;7.52;51.19;101102.41;5284194;28;20063;-67
2021/04/27 06:57:51;;;;;;;8.60;5.78;;;;;;;7.76;52.77;101096.44;5287838;28;20035;-67
2021/04/27 07:00:22;;;;;;;7.45;5.43;;;;;;;7.84;52.02;101095.91;5288752;28;20153;-67
2021/04/27 07:02:54;;;;;;;11.18;5.32;;;;;;;7.98;52.00;101087.97;5289002;28;20043;-67
2021/04/27 07:05:26;;;;;;;9.13;5.00;;;;;;;8.25;50.37;101100.84;5271917;28;20476;-67
2021/04/27 07:07:57;;;;;;;8.80;5.13;;;;;;;8.37;49.44;101100.03;5255833;28;20027;-67
2021/04/27 07:10:29;;;;;;;8.43;4.50;;;;;;;8.42;47.44;101095.28;5257002;28;20477;-67
2021/04/27 07:13:00;;;;;;;9.27;4.70;;;;;;;8.63;48.21;101087.66;5260427;28;20064;-67
2021/04/27 07:15:32;;;;;;;7.03;4.38;;;;;;;8.69;45.83;101092.47;5277969;28;20432;-67
2021/04/27 07:18:03;;;;;;;7.13;4.50;;;;;;;8.76;46.30;101077.19;5281241;28;20016;-67
2021/04/27 07:20:35;;;;;;;9.43;4.68;;;;;;;8.76;44.51;101082.41;5285768;28;20028;-67
2021/04/27 07:23:06;;;;;;;6.38;4.38;;;;;;;8.83;44.86;101070.56;5286364;28;20020;-67
2021/04/27 07:25:38;;;;;;;5.60;4.05;;;;;;;9.00;44.27;101077.97;5284273;28;20029;-67
2021/04/27 07:28:09;;;;;;;6.45;4.50;;;;;;;9.21;44.47;101074.72;5283860;28;20032;-68
2021/04/27 07:30:41;;;;;;;4.85;4.05;;;;;;;9.44;44.06;101070.34;5283584;28;20393;-68
2021/04/27 07:33:12;;;;;;;7.93;4.30;;;;;;;9.49;44.05;101073.44;5286905;28;20035;-67
2021/04/27 07:35:43;;;;;;;6.43;4.45;;;;;;;9.63;44.16;101070.59;5287021;28;20031;-67
2021/04/27 07:38:15;;;;;;;7.60;4.30;;;;;;;9.85;43.58;101066.28;5283292;28;20048;-68
2021/04/27 07:40:47;;;;;;;7.80;3.60;;;;;;;9.89;41.94;101065.13;5278513;28;20112;-68
2021/04/27 07:43:18;;;;;;;8.25;4.35;;;;;;;10.10;42.19;101057.34;5283986;28;20046;-68
2021/04/27 07:45:49;;;;;;;5.82;3.50;;;;;;;10.08;40.21;101054.88;5284651;28;20028;-67
2021/04/27 07:48:21;;;;;;;6.95;4.32;;;;;;;10.20;42.41;101060.91;5284323;28;20028;-67
2021/04/27 07:50:52;;;;;;;8.60;4.45;;;;;;;10.39;41.00;101058.50;5284755;28;20636;-68
2021/04/27 07:53:23;;;;;;;9.10;4.50;;;;;;;10.59;41.06;101058.69;5278915;28;20438;-68
2021/04/27 07:55:55;;;;;;;7.70;3.90;;;;;;;10.61;38.93;101057.63;5286882;28;20115;-67
2021/04/27 07:58:26;;;;;;;6.55;4.30;;;;;;;10.88;40.06;101054.50;5283872;28;20567;-67
2021/04/27 08:00:58;;;;;;;8.25;4.20;;;;;;;10.91;40.36;101051.66;5287228;28;20075;-68
2021/04/27 08:03:29;;;;;;;8.05;4.07;;;;;;;11.03;39.11;101060.28;5287193;28;20042;-68
2021/04/27 08:06:01;;;;;;;6.13;3.83;;;;;;;11.00;38.36;101051.84;5286303;28;20023;-68
2021/04/27 08:08:32;;;;;;;7.85;4.07;;;;;;;11.16;37.19;101052.22;5284405;28;20024;-67
2021/04/27 08:11:03;;;;;;;8.15;3.70;;;;;;;11.24;37.69;101052.38;5285577;28;20032;-67
2021/04/27 08:13:35;;;;;;;8.25;3.75;;;;;;;11.22;36.65;101041.22;5283126;28;20255;-67
2021/04/27 08:16:06;;;;;;;6.68;3.60;;;;;;;11.35;37.63;101048.88;5285816;28;20032;-68
2021/04/27 08:18:38;;;;;;;6.68;3.25;;;;;;;11.59;37.37;101040.69;5281027;28;20021;-68
2021/04/27 08:21:11;;;;;;;5.75;3.50;;;;;;;11.56;37.01;101049.66;5286601;28;20035;-68
2021/04/27 08:23:43;;;;;;;5.13;3.58;;;;;;;11.73;37.07;101047.38;5285786;28;20493;-68
2021/04/27 08:26:14;;;;;;;9.57;3.92;;;;;;;11.79;36.28;101044.22;5286452;28;20028;-68
2021/04/27 08:28:46;;;;;;;7.05;3.65;;;;;;;11.85;35.52;101046.34;5285715;28;20702;-68
2021/04/27 08:31:17;;;;;;;6.38;3.25;;;;;;;11.92;35.77;101042.22;5286544;28;20028;-67
2021/04/27 08:33:48;;;;;;;7.45;3.75;;;;;;;12.06;35.55;101046.28;5272897;28;20509;-68
2021/04/27 08:36:20;;;;;;;5.63;3.58;;;;;;;12.19;34.45;101041.59;5287051;28;20024;-68
2021/04/27 08:38:51;;;;;;;7.00;3.65;;;;;;;12.00;34.66;101036.28;5284008;28;20070;-68
2021/04/27 08:41:24;;;;;;;7.68;3.97;;;;;;;12.19;35.56;101038.97;5282701;28;20068;-68
2021/04/27 08:43:55;;;;;;;7.03;3.75;;;;;;;12.39;34.90;101030.16;5283638;28;20028;-69
2021/04/27 08:46:26;;;;;;;10.40;3.38;;;;;;;12.49;34.68;101032.75;5280791;28;20059;-69
2021/04/27 08:48:58;;;;;;;6.82;3.67;;;;;;;12.65;33.82;101033.06;5285035;28;20024;-69
2021/04/27 08:51:29;;;;;;;5.40;3.42;;;;;;;12.71;33.63;101036.91;5284685;28;20036;-69
2021/04/27 08:54:03;;;;;;;10.25;3.63;;;;;;;12.91;34.11;101030.66;5285893;28;20499;-69
2021/04/27 08:56:34;;;;;;;5.20;3.70;;;;;;;12.92;33.18;101034.16;5284751;28;20024;-69
2021/04/27 08:59:06;;;;;;;11.90;4.00;;;;;;;12.95;33.04;101033.84;5284153;28;20039;-69
2021/04/27 09:01:37;;;;;;;6.53;4.07;;;;;;;13.18;33.77;101023.81;5281935;28;20409;-69
2021/04/27 09:04:08;;;;;;;6.72;3.78;;;;;;;13.25;32.91;101027.59;5275600;28;20119;-68
2021/04/27 09:06:40;;;;;;;6.85;3.25;;;;;;;13.31;32.62;101024.38;5286057;28;20024;-68
2021/04/27 09:09:31;;;;;;;7.15;3.60;;;;;;;13.51;32.15;101025.13;5284874;28;20038;-68
2021/04/27 09:12:03;;;;;;;5.07;3.28;;;;;;;13.60;30.72;101023.47;5284997;28;20029;-68
2021/04/27 09:14:38;;;;;;;5.65;3.15;;;;;;;13.63;30.99;101021.34;5286274;28;20036;-68
2021/04/27 09:17:12;;;;;;;7.18;3.47;;;;;;;13.72;31.22;101021.47;5286781;28;20039;-71
2021/04/27 09:19:48;;;;;;;6.07;3.40;;;;;;;13.99;31.26;101018.00;5281769;28;20031;-69
2021/04/27 09:22:24;;;;;;;6.80;3.60;;;;;;;14.10;29.87;101005.44;5281689;28;20028;-69
2021/04/27 09:25:06;;;;;;;6.88;3.40;;;;;;;14.14;29.97;101011.22;5284742;28;20046;-69
2021/04/27 09:27:48;;;;;;;5.93;3.25;;;;;;;14.31;29.95;101007.75;5282668;28;20107;-69
2021/04/27 09:30:28;;;;;;;7.72;3.40;;;;;;;14.24;29.65;101001.44;5283361;28;20040;-69
2021/04/27 09:33:06;;;;;;;8.90;3.40;;;;;;;14.28;28.33;101001.97;5282962;28;20032;-69
2021/04/27 09:35:41;;;;;;;6.85;3.92;;;;;;;14.25;28.55;100992.56;5284997;28;20036;-69
2021/04/27 09:38:18;;;;;;;5.68;3.72;;;;;;;14.33;28.76;100992.63;5279949;28;20028;-69
2021/04/27 09:41:04;;;;;;;7.38;3.50;;;;;;;14.26;27.60;100986.31;5284787;28;20044;-70
2021/04/27 09:43:41;;;;;;;5.82;3.40;;;;;;;14.31;28.43;100984.03;5286151;28;20036;-69
2021/04/27 09:46:18;;;;;;;9.18;4.03;;;;;;;14.52;28.72;100977.69;5284453;28;20031;-69
2021/04/27 09:48:55;;;;;;;5.60;3.83;;;;;;;14.69;28.39;100979.44;5280228;28;20086;-68
2021/04/27 09:51:34;;;;;;;7.00;3.55;;;;;;;14.88;28.90;100975.78;5285918;28;20549;-68
2021/04/27 09:54:10;;;;;;;8.40;3.33;;;;;;;14.80;27.38;100962.53;5285940;28;20024;-68
2021/04/27 09:56:51;;;;;;;9.05;3.80;;;;;;;14.86;27.54;100961.13;5282330;28;20078;-68
2021/04/27 09:59:28;;;;;;;6.75;3.15;;;;;;;14.86;26.98;100958.47;5285205;28;20048;-68
2021/04/27 10:02:09;;;;;;;7.85;3.80;;;;;;;14.91;27.19;100946.47;5283844;28;20028;-68
2021/04/27 10:04:40;;;;;;;4.93;3.63;;;;;;;14.80;27.46;100950.19;5285506;28;20040;-69
2021/04/27 10:07:16;;;;;;;5.03;3.83;;;;;;;14.98;26.10;100958.06;5282613;28;20039;-68
2021/04/27 10:09:48;;;;;;;6.13;3.70;;;;;;;14.74;25.57;100950.81;5282355;28;20020;-69
2021/04/27 10:12:19;;;;;;;7.32;3.97;;;;;;;14.97;26.15;100937.94;5381577;22;20036;-70
2021/04/27 10:14:50;;;;;;;5.78;3.38;;;;;;;14.96;26.31;100946.81;5251871;28;20101;-71
2021/04/27 10:17:23;;;;;;;9.20;3.92;;;;;;;15.15;25.76;100952.84;5260661;28;20024;-69
2021/04/27 10:19:55;;;;;;;6.40;3.10;;;;;;;15.00;25.86;100942.91;5261133;28;20120;-69
2021/04/27 10:22:27;;;;;;;6.25;3.60;;;;;;;15.04;25.90;100951.34;5265470;28;20124;-70
2021/04/27 10:24:59;;;;;;;6.90;3.42;;;;;;;15.23;26.86;100947.63;5264935;28;20032;-68
2021/04/27 10:27:32;;;;;;;4.75;3.30;;;;;;;15.23;25.74;100935.28;5264569;28;20083;-69
2021/04/27 10:30:15;;;;;;;6.53;3.83;;;;;;;15.53;26.98;100944.47;5266700;28;20478;-68
2021/04/27 10:33:02;;;;;;;6.18;3.30;;;;;;;15.50;26.02;100936.84;5253265;28;20185;-68
2021/04/27 10:36:00;;;;;;;5.80;3.40;;;;;;;15.40;25.56;100935.31;5252690;28;20067;-71
2021/04/27 10:38:41;;;;;;;5.25;3.65;;;;;;;15.55;25.01;100936.38;5260591;28;20546;-68
2021/04/27 10:41:16;;;;;;;6.03;3.55;;;;;;;15.54;24.47;100940.81;5259367;28;20032;-69
2021/04/27 10:43:59;;;;;;;6.93;3.90;;;;;;;15.49;25.66;100914.09;5260500;28;20044;-70
2021/04/27 10:46:34;;;;;;;6.57;3.80;;;;;;;15.49;25.53;100924.66;5263153;28;20058;-69
2021/04/27 10:49:07;;;;;;;6.40;3.30;;;;;;;15.53;25.96;100919.84;5260578;28;20440;-69
2021/04/27 10:51:40;;;;;;;5.75;3.78;;;;;;;15.79;25.43;100923.25;5251421;28;20174;-70
2021/04/27 10:54:19;;;;;;;5.65;3.47;;;;;;;15.94;24.88;100914.69;5250971;28;20473;-71
2021/04/27 10:57:00;;;;;;;4.90;3.85;;;;;;;15.96;25.34;100910.91;5262405;28;20027;-68
2021/04/27 10:59:48;;;;;;;5.68;3.92;;;;;;;15.98;25.49;100908.09;5265532;28;20052;-69
2021/04/27 11:02:25;;;;;;;5.30;3.47;;;;;;;16.07;24.46;100908.94;5263807;28;20032;-69
2021/04/27 11:05:01;;;;;;;5.38;3.80;;;;;;;15.90;24.36;100911.53;5267091;28;20032;-69
2021/04/27 11:07:33;;;;;;;5.72;3.85;;;;;;;15.81;24.65;100910.72;5268199;28;20047;-68
2021/04/27 11:10:05;;;;;;;8.80;4.00;;;;;;;15.99;25.39;100904.47;5265635;28;20024;-68
2021/04/27 11:12:56;;;;;;;5.78;3.80;;;;;;;15.95;23.95;100917.19;5264898;28;20044;-68
2021/04/27 11:15:31;;;;;;;5.15;3.70;;;;;;;15.94;24.95;100902.28;5265844;28;20409;-68
2021/04/27 11:18:10;;;;;;;5.32;3.88;;;;;;;16.18;24.18;100893.56;5267859;28;20054;-69
2021/04/27 11:20:47;;;;;;;5.57;3.70;;;;;;;16.62;24.99;100892.38;5266408;28;20063;-68
2021/04/27 11:23:37;;;;;;;4.57;3.67;;;;;;;16.47;23.56;100889.56;5266567;28;20032;-69
2021/04/27 11:26:34;;;;;;;5.18;3.90;;;;;;;16.51;24.17;100891.72;5268180;28;20025;-70
2021/04/27 11:29:09;;;;;;;5.20;3.67;;;;;;;16.28;24.02;100891.56;5265005;28;20033;-68
2021/04/27 11:32:05;;;;;;;5.93;3.60;;;;;;;16.28;23.78;100898.69;5267153;28;20029;-68
2021/04/27 11:35:14;;;;;;;5.50;3.28;;;;;;;16.48;24.51;100888.59;5256416;28;20465;-69
2021/04/27 11:37:53;;;;;;;4.72;3.70;;;;;;;16.37;24.85;100900.34;5264062;28;20037;-68
2021/04/27 11:40:45;;;;;;;5.20;4.03;;;;;;;16.48;23.83;100885.97;5268014;28;20097;-68
2021/04/27 11:43:16;;;;;;;6.05;3.63;;;;;;;16.59;23.27;100890.06;5263258;28;20402;-69
2021/04/27 11:45:49;;;;;;;8.50;3.50;;;;;;;16.56;23.66;100893.06;5263533;28;20028;-68
2021/04/27 11:48:22;;;;;;;7.03;3.30;;;;;;;16.41;23.33;100891.09;5262848;28;20032;-68
2021/04/27 11:50:54;;;;;;;;;;;;;;;16.92;24.34;100888.19;5265359;28;20189;-68
2021/04/27 11:53:26;;;;;;;5.77;3.80;;;;;;;16.69;24.12;100886.22;5263859;28;19912;-67
2021/04/27 11:55:58;;;;;;;8.00;3.95;;;;;;;16.59;23.47;100879.47;5282942;28;20404;-69
2021/04/27 11:58:36;;;;;;;8.80;4.35;;;;;;;16.47;23.97;100879.00;5262941;28;20023;-68